createdAt,value
2023-05-25T00:00:12.808Z,6.93
2023-05-25T00:02:43.044Z,6.90
2023-05-25T00:10:26.158Z,6.83
2023-05-25T00:12:57.208Z,6.79
2023-05-25T00:15:26.831Z,6.81
2023-05-25T00:17:56.834Z,6.82
2023-05-25T00:20:26.665Z,6.79
2023-05-25T00:22:56.441Z,6.79
2023-05-25T00:25:28.710Z,6.76
2023-05-25T00:27:58.824Z,6.67
2023-05-25T00:30:28.487Z,6.63
2023-05-25T00:32:58.414Z,6.61
2023-05-25T00:35:28.083Z,6.53
2023-05-25T00:37:57.739Z,6.47
2023-05-25T00:40:29.962Z,6.48
2023-05-25T00:43:02.231Z,6.46
2023-05-25T00:45:31.859Z,6.48
2023-05-25T00:48:03.300Z,6.47
2023-05-25T00:50:41.189Z,6.46
2023-05-25T00:53:11.752Z,6.42
2023-05-25T00:55:51.203Z,6.37
2023-05-25T00:58:24.863Z,6.29
2023-05-25T01:00:57.981Z,6.27
2023-05-25T01:03:31.206Z,6.22
2023-05-25T01:06:02.334Z,6.23
2023-05-25T01:08:36.192Z,6.17
2023-05-25T01:11:11.636Z,6.21
2023-05-25T01:13:42.940Z,6.21
2023-05-25T01:16:13.146Z,6.14
2023-05-25T01:18:43.945Z,6.17
2023-05-25T01:21:22.950Z,6.19
2023-05-25T01:24:01.696Z,6.24
2023-05-25T01:26:35.212Z,6.18
2023-05-25T01:29:05.270Z,6.19
2023-05-25T01:31:38.872Z,6.22
2023-05-25T01:34:08.646Z,6.21
2023-05-25T01:36:41.917Z,6.19
2023-05-25T01:39:13.931Z,6.13
2023-05-25T01:41:43.577Z,6.12
2023-05-25T01:44:13.822Z,6.12
2023-05-25T01:46:44.136Z,6.10
2023-05-25T01:49:38.902Z,6.04
2023-05-25T01:52:21.086Z,6.00
2023-05-25T01:54:56.019Z,5.96
2023-05-25T01:57:27.430Z,5.95
2023-05-25T02:00:00.517Z,5.93
2023-05-25T02:02:31.382Z,5.87
2023-05-25T02:05:01.618Z,5.86
2023-05-25T02:07:34.045Z,5.90
2023-05-25T02:10:03.662Z,5.98
2023-05-25T02:12:33.480Z,6.00
2023-05-25T02:15:03.226Z,6.02
2023-05-25T02:17:33.008Z,6.00
2023-05-25T02:20:02.691Z,6.07
2023-05-25T02:22:35.251Z,6.14
2023-05-25T02:25:04.923Z,6.20
2023-05-25T02:27:34.572Z,6.24
2023-05-25T02:30:04.244Z,6.27
2023-05-25T02:32:34.101Z,6.31
2023-05-25T02:35:04.066Z,6.32
2023-05-25T02:37:36.520Z,6.30
2023-05-25T02:40:06.861Z,6.28
2023-05-25T02:42:36.541Z,6.28
2023-05-25T02:45:07.163Z,6.32
2023-05-25T02:47:40.832Z,6.33
2023-05-25T02:50:11.199Z,6.31
2023-05-25T02:52:43.349Z,6.31
2023-05-25T02:55:13.748Z,6.36
2023-05-25T02:57:43.610Z,6.38
2023-05-25T03:00:15.001Z,6.42
2023-05-25T03:02:47.043Z,6.45
2023-05-25T03:05:16.896Z,6.49
2023-05-25T03:07:49.314Z,6.54
2023-05-25T03:10:19.234Z,6.60
2023-05-25T03:12:49.935Z,6.64
2023-05-25T03:15:19.884Z,6.67
2023-05-25T03:17:51.758Z,6.73
2023-05-25T03:20:24.878Z,6.77
2023-05-25T03:22:58.015Z,6.79
2023-05-25T03:25:27.731Z,6.86
2023-05-25T03:27:57.769Z,6.92
2023-05-25T03:30:27.832Z,6.96
2023-05-25T03:32:57.608Z,6.99
2023-05-25T03:35:27.506Z,7.01
2023-05-25T03:37:59.787Z,7.00
2023-05-25T03:40:29.477Z,6.97
2023-05-25T03:42:59.285Z,7.00
2023-05-25T03:45:29.010Z,7.02
2023-05-25T03:47:59.125Z,7.06
2023-05-25T03:50:28.864Z,7.10
2023-05-25T03:53:01.293Z,7.16
2023-05-25T03:55:32.782Z,7.14
2023-05-25T03:58:02.686Z,7.19
2023-05-25T04:00:33.632Z,7.27
2023-05-25T04:03:03.337Z,7.28
2023-05-25T04:05:33.189Z,7.32
2023-05-25T04:08:07.151Z,7.36
2023-05-25T04:10:39.216Z,7.37
2023-05-25T04:13:09.026Z,7.42
2023-05-25T04:15:38.778Z,7.47
2023-05-25T04:18:09.665Z,7.54
2023-05-25T04:20:39.545Z,7.66
2023-05-25T04:23:11.955Z,7.74
2023-05-25T04:25:42.581Z,7.81
2023-05-25T04:28:12.718Z,7.89
2023-05-25T04:30:42.775Z,7.99
2023-05-25T04:33:14.695Z,8.08
2023-05-25T04:35:44.345Z,8.13
2023-05-25T04:38:18.883Z,8.17
2023-05-25T04:40:49.272Z,8.13
2023-05-25T04:43:20.591Z,8.22
2023-05-25T04:45:51.745Z,8.28
2023-05-25T04:48:21.843Z,8.23
2023-05-25T04:50:52.026Z,8.30
2023-05-25T04:53:24.814Z,8.39
2023-05-25T04:55:55.593Z,8.43
2023-05-25T04:58:25.712Z,8.47
2023-05-25T05:00:55.424Z,8.50
2023-05-25T05:03:25.358Z,8.59
2023-05-25T05:05:55.087Z,8.65
2023-05-25T05:08:27.402Z,8.68
2023-05-25T05:10:57.117Z,8.71
2023-05-25T05:13:26.754Z,8.85
2023-05-25T05:15:57.191Z,8.96
2023-05-25T05:18:29.700Z,9.04
2023-05-25T05:21:00.018Z,9.04
2023-05-25T05:23:35.224Z,9.11
2023-05-25T05:26:07.403Z,9.13
2023-05-25T05:28:37.008Z,9.19
2023-05-25T05:31:07.039Z,9.24
2023-05-25T05:33:39.944Z,9.33
2023-05-25T05:36:09.927Z,9.34
2023-05-25T05:38:43.210Z,9.46
2023-05-25T05:41:14.413Z,9.59
2023-05-25T05:43:46.139Z,9.72
2023-05-25T05:46:15.865Z,9.85
2023-05-25T05:48:45.554Z,9.99
2023-05-25T05:51:15.213Z,10.08
2023-05-25T05:53:47.426Z,10.23
2023-05-25T05:56:22.970Z,10.41
2023-05-25T05:58:54.287Z,10.46
2023-05-25T06:01:25.642Z,10.49
2023-05-25T06:03:56.232Z,10.45
2023-05-25T06:06:26.194Z,10.53
2023-05-25T06:08:58.408Z,10.69
2023-05-25T06:11:27.990Z,10.79
2023-05-25T06:13:57.930Z,11.03
2023-05-25T06:16:27.603Z,11.00
2023-05-25T06:18:58.337Z,11.07
2023-05-25T06:21:28.366Z,11.21
2023-05-25T06:24:00.776Z,11.41
2023-05-25T06:26:30.426Z,11.63
2023-05-25T06:29:00.472Z,11.79
2023-05-25T06:31:30.400Z,11.77
2023-05-25T06:34:00.192Z,11.94
2023-05-25T06:36:32.186Z,12.06
2023-05-25T06:39:04.491Z,11.94
2023-05-25T06:41:35.030Z,11.86
2023-05-25T06:44:04.862Z,11.98
2023-05-25T06:46:34.546Z,12.05
2023-05-25T06:49:05.025Z,11.92
2023-05-25T06:51:37.157Z,11.99
2023-05-25T06:54:09.819Z,12.01
2023-05-25T06:56:39.415Z,11.93
2023-05-25T06:59:09.114Z,11.81
2023-05-25T07:01:39.153Z,11.77
2023-05-25T07:04:08.969Z,11.81
2023-05-25T07:06:38.634Z,11.91
2023-05-25T07:09:11.296Z,11.86
2023-05-25T07:11:40.939Z,11.93
2023-05-25T07:14:10.875Z,11.96
2023-05-25T07:16:42.721Z,12.00
2023-05-25T07:19:14.769Z,11.90
2023-05-25T07:21:44.400Z,12.03
2023-05-25T07:24:19.337Z,12.10
2023-05-25T07:26:50.521Z,12.18
2023-05-25T07:29:20.187Z,12.17
2023-05-25T07:31:49.978Z,12.44
2023-05-25T07:34:22.789Z,12.61
2023-05-25T07:36:52.520Z,12.66
2023-05-25T07:39:25.985Z,12.75
2023-05-25T07:41:55.727Z,12.77
2023-05-25T07:44:29.324Z,12.62
2023-05-25T07:46:59.135Z,12.88
2023-05-25T07:49:31.326Z,12.88
2023-05-25T07:52:01.052Z,13.02
2023-05-25T07:54:33.887Z,12.95
2023-05-25T07:57:03.661Z,13.12
2023-05-25T07:59:33.337Z,13.06
2023-05-25T08:02:03.025Z,13.26
2023-05-25T08:04:34.051Z,13.42
2023-05-25T08:07:04.048Z,13.38
2023-05-25T08:09:36.300Z,13.53
2023-05-25T08:12:27.187Z,13.96
2023-05-25T08:14:56.509Z,14.13
2023-05-25T08:17:26.785Z,14.30
2023-05-25T08:19:57.996Z,14.31
2023-05-25T08:22:28.409Z,14.34
2023-05-25T08:25:00.924Z,14.49
2023-05-25T08:27:32.813Z,14.29
2023-05-25T08:30:04.195Z,14.77
2023-05-25T08:32:33.946Z,15.13
2023-05-25T08:35:03.761Z,15.05
2023-05-25T08:37:35.786Z,14.95
2023-05-25T08:40:09.881Z,14.92
2023-05-25T08:42:39.552Z,15.14
2023-05-25T08:45:14.333Z,15.23
2023-05-25T08:47:54.003Z,15.69
2023-05-25T08:50:25.281Z,15.68
2023-05-25T08:52:57.798Z,15.68
2023-05-25T08:55:36.637Z,15.96
2023-05-25T08:58:16.728Z,16.02
2023-05-25T09:00:55.047Z,16.05
2023-05-25T09:03:25.963Z,15.87
2023-05-25T09:05:57.796Z,16.05
2023-05-25T09:08:29.924Z,16.16
2023-05-25T09:11:03.800Z,16.60
2023-05-25T09:13:33.727Z,17.05
2023-05-25T09:16:03.361Z,17.01
2023-05-25T09:18:34.425Z,17.01
2023-05-25T09:21:04.875Z,17.24
2023-05-25T09:23:35.344Z,17.81
2023-05-25T09:26:09.059Z,17.69
2023-05-25T09:28:48.270Z,17.86
2023-05-25T09:31:18.382Z,18.46
2023-05-25T09:33:49.138Z,18.63
2023-05-25T09:36:22.199Z,17.58
2023-05-25T09:38:52.599Z,18.80
2023-05-25T09:41:27.815Z,19.34
2023-05-25T09:44:10.356Z,19.72
2023-05-25T09:46:45.009Z,20.56
2023-05-25T09:49:14.767Z,19.54
2023-05-25T09:51:44.537Z,20.66
2023-05-25T09:54:14.758Z,20.43
2023-05-25T09:56:47.939Z,20.59
2023-05-25T09:59:18.857Z,20.70
2023-05-25T10:01:54.002Z,21.75
2023-05-25T10:04:24.053Z,22.26
2023-05-25T10:06:56.982Z,21.35
2023-05-25T10:09:31.753Z,22.15
2023-05-25T10:12:05.804Z,22.70
2023-05-25T10:14:39.795Z,22.56
2023-05-25T10:17:11.763Z,21.25
2023-05-25T10:19:45.886Z,21.15
2023-05-25T10:22:22.236Z,21.40
2023-05-25T10:24:58.948Z,21.30
2023-05-25T10:27:37.493Z,22.30
2023-05-25T10:30:09.184Z,19.53
2023-05-25T10:32:42.077Z,18.63
2023-05-25T10:35:12.986Z,19.61
2023-05-25T10:37:43.278Z,21.57
2023-05-25T10:40:15.798Z,21.99
2023-05-25T10:42:48.529Z,21.39
2023-05-25T10:45:19.775Z,21.76
2023-05-25T10:47:51.343Z,21.83
2023-05-25T10:50:26.445Z,22.22
2023-05-25T10:53:03.636Z,21.58
2023-05-25T10:55:45.673Z,20.75
2023-05-25T10:58:19.706Z,20.72
2023-05-25T11:01:02.887Z,20.91
2023-05-25T11:03:51.797Z,21.51
2023-05-25T11:06:25.948Z,20.79
2023-05-25T11:08:59.776Z,19.98
2023-05-25T11:12:04.192Z,20.25
2023-05-25T11:14:38.608Z,20.77
2023-05-25T11:17:12.006Z,20.97
2023-05-25T11:19:47.916Z,21.26
2023-05-25T11:22:21.522Z,20.92
2023-05-25T11:24:51.881Z,20.99
2023-05-25T11:27:26.775Z,20.46
2023-05-25T11:30:00.681Z,20.81
2023-05-25T11:32:30.951Z,20.98
2023-05-25T11:35:01.355Z,20.32
2023-05-25T11:37:31.989Z,20.69
2023-05-25T11:40:01.821Z,19.25
2023-05-25T11:42:34.951Z,19.59
2023-05-25T11:45:13.543Z,20.42
2023-05-25T11:47:43.577Z,19.82
2023-05-25T11:50:18.962Z,20.40
2023-05-25T11:52:48.801Z,20.22
2023-05-25T11:55:18.523Z,20.17
2023-05-25T11:57:49.680Z,20.38
2023-05-25T12:00:31.820Z,20.47
2023-05-25T12:03:02.907Z,20.62
2023-05-25T12:05:40.787Z,20.89
2023-05-25T12:08:10.703Z,20.57
2023-05-25T12:10:52.800Z,19.14
2023-05-25T12:13:23.162Z,20.06
2023-05-25T12:15:57.844Z,20.07
2023-05-25T12:18:27.682Z,20.41
2023-05-25T12:20:57.727Z,20.37
2023-05-25T12:23:27.974Z,20.35
2023-05-25T12:26:11.643Z,19.45
2023-05-25T12:28:41.420Z,19.44
2023-05-25T12:31:27.308Z,19.70
2023-05-25T12:34:07.438Z,20.18
2023-05-25T12:36:51.905Z,20.35
2023-05-25T12:39:39.135Z,20.65
2023-05-25T12:42:16.432Z,20.91
2023-05-25T12:44:49.909Z,20.93
2023-05-25T12:47:23.859Z,21.19
2023-05-25T12:49:56.168Z,21.93
2023-05-25T12:52:36.853Z,21.12
2023-05-25T12:55:22.685Z,21.26
2023-05-25T12:57:53.945Z,20.93
2023-05-25T13:00:25.600Z,21.42
2023-05-25T13:02:58.013Z,20.90
2023-05-25T13:05:29.189Z,19.69
2023-05-25T13:08:00.289Z,18.93
2023-05-25T13:10:30.977Z,19.32
2023-05-25T13:13:01.014Z,19.43
2023-05-25T13:15:31.787Z,19.52
2023-05-25T13:18:05.848Z,19.77
2023-05-25T13:20:37.021Z,19.57
2023-05-25T13:23:09.126Z,19.52
2023-05-25T13:25:40.542Z,19.84
2023-05-25T13:28:11.796Z,19.74
2023-05-25T13:30:42.720Z,19.89
2023-05-25T13:33:17.806Z,19.98
2023-05-25T13:35:58.718Z,19.87
2023-05-25T13:38:29.837Z,20.37
2023-05-25T13:41:01.828Z,20.48
2023-05-25T13:43:33.780Z,20.99
2023-05-25T13:46:03.631Z,20.36
2023-05-25T13:48:37.942Z,20.36
2023-05-25T13:51:07.944Z,20.43
2023-05-25T13:53:37.808Z,21.04
2023-05-25T13:56:08.039Z,21.08
2023-05-25T13:58:37.705Z,21.18
2023-05-25T14:01:07.881Z,21.37
2023-05-25T14:03:40.896Z,20.43
2023-05-25T14:06:10.959Z,20.46
2023-05-25T14:08:40.783Z,21.05
2023-05-25T14:11:10.501Z,20.97
2023-05-25T14:13:41.043Z,20.35
2023-05-25T14:16:11.803Z,20.49
2023-05-25T14:18:44.089Z,20.70
2023-05-25T14:21:14.995Z,20.53
2023-05-25T14:23:44.793Z,20.37
2023-05-25T14:26:15.406Z,20.29
2023-05-25T14:28:45.047Z,20.22
2023-05-25T14:31:14.871Z,20.18
2023-05-25T14:33:50.413Z,20.26
2023-05-25T14:36:20.254Z,20.31
2023-05-25T14:38:49.912Z,20.30
2023-05-25T14:41:19.832Z,20.16
2023-05-25T14:43:49.435Z,19.94
2023-05-25T14:46:19.417Z,19.97
2023-05-25T14:48:53.598Z,19.94
2023-05-25T14:51:23.322Z,19.00
2023-05-25T14:53:54.613Z,18.74
2023-05-25T14:56:25.978Z,18.92
2023-05-25T14:58:55.585Z,18.95
2023-05-25T15:01:25.610Z,18.70
2023-05-25T15:03:58.372Z,18.69
2023-05-25T15:06:30.251Z,18.52
2023-05-25T15:09:03.383Z,18.49
2023-05-25T15:11:32.998Z,18.56
2023-05-25T15:14:02.673Z,18.78
2023-05-25T15:16:35.066Z,18.73
2023-05-25T15:19:10.702Z,18.53
2023-05-25T15:21:41.534Z,18.33
2023-05-25T15:24:13.992Z,18.48
2023-05-25T15:26:43.833Z,18.29
2023-05-25T15:29:13.632Z,18.51
2023-05-25T15:31:43.507Z,18.49
2023-05-25T15:34:16.066Z,18.47
2023-05-25T15:36:45.714Z,18.63
2023-05-25T15:39:17.676Z,18.62
2023-05-25T15:41:47.318Z,18.74
2023-05-25T15:44:17.002Z,18.74
2023-05-25T15:46:46.761Z,18.77
2023-05-25T15:49:20.091Z,18.73
2023-05-25T15:51:49.766Z,18.79
2023-05-25T15:54:19.619Z,18.91
2023-05-25T15:56:49.806Z,18.80
2023-05-25T15:59:20.924Z,18.69
2023-05-25T16:01:50.655Z,18.97
2023-05-25T16:04:24.117Z,19.18
2023-05-25T16:06:53.794Z,19.28
2023-05-25T16:09:25.247Z,19.20
2023-05-25T16:11:54.905Z,19.17
2023-05-25T16:14:24.566Z,19.22
2023-05-25T16:16:54.265Z,19.30
2023-05-25T16:19:26.863Z,19.43
2023-05-25T16:21:57.795Z,19.14
2023-05-25T16:24:28.937Z,19.28
2023-05-25T16:26:58.543Z,19.37
2023-05-25T16:29:28.824Z,19.30
2023-05-25T16:31:58.691Z,19.14
2023-05-25T16:34:32.279Z,19.01
2023-05-25T16:37:01.924Z,18.83
2023-05-25T16:39:31.641Z,18.74
2023-05-25T16:42:02.630Z,18.90
2023-05-25T16:44:32.271Z,18.97
2023-05-25T16:47:02.848Z,18.85
2023-05-25T16:49:35.101Z,18.84
2023-05-25T16:52:05.376Z,18.86
2023-05-25T16:54:34.988Z,18.89
2023-05-25T16:57:04.705Z,18.93
2023-05-25T16:59:35.394Z,18.96
2023-05-25T17:02:08.789Z,18.91
2023-05-25T17:04:41.066Z,18.93
2023-05-25T17:07:10.932Z,18.73
2023-05-25T17:09:40.980Z,18.68
2023-05-25T17:12:12.543Z,18.58
2023-05-25T17:14:43.314Z,18.48
2023-05-25T17:17:14.162Z,18.25
2023-05-25T17:19:46.481Z,18.29
2023-05-25T17:22:17.805Z,18.21
2023-05-25T17:24:47.420Z,18.07
2023-05-25T17:27:17.186Z,17.95
2023-05-25T17:29:46.814Z,17.88
2023-05-25T17:32:16.599Z,17.84
2023-05-25T17:34:48.897Z,17.80
2023-05-25T17:37:21.362Z,17.69
2023-05-25T17:39:51.808Z,17.62
2023-05-25T17:42:21.506Z,17.51
2023-05-25T17:44:51.101Z,17.47
2023-05-25T17:47:21.591Z,17.40
2023-05-25T17:49:54.280Z,17.35
2023-05-25T17:52:26.432Z,17.31
2023-05-25T17:54:58.821Z,17.25
2023-05-25T17:57:28.652Z,17.17
2023-05-25T17:59:58.803Z,17.11
2023-05-25T18:02:30.581Z,17.03
2023-05-25T18:05:03.272Z,16.93
2023-05-25T18:07:33.799Z,16.82
2023-05-25T18:10:04.459Z,16.73
2023-05-25T18:12:34.385Z,16.66
2023-05-25T18:15:04.026Z,16.59
2023-05-25T18:17:35.880Z,16.54
2023-05-25T18:20:12.103Z,16.50
2023-05-25T18:22:41.798Z,16.49
2023-05-25T18:25:13.895Z,16.41
2023-05-25T18:27:46.305Z,16.33
2023-05-25T18:30:18.713Z,16.24
2023-05-25T18:32:49.830Z,16.15
2023-05-25T18:35:24.593Z,16.06
2023-05-25T18:37:54.196Z,15.98
2023-05-25T18:40:23.876Z,15.89
2023-05-25T18:42:53.548Z,15.76
2023-05-25T18:45:23.642Z,15.60
2023-05-25T18:47:53.857Z,15.48
2023-05-25T18:50:26.677Z,15.35
2023-05-25T18:53:00.025Z,15.24
2023-05-25T18:55:30.098Z,15.16
2023-05-25T18:58:06.728Z,15.00
2023-05-25T19:00:36.401Z,14.86
2023-05-25T19:03:07.025Z,14.73
2023-05-25T19:05:39.880Z,14.67
2023-05-25T19:08:10.710Z,14.58
2023-05-25T19:10:42.115Z,14.48
2023-05-25T19:13:12.031Z,14.32
2023-05-25T19:15:41.884Z,14.20
2023-05-25T19:18:12.620Z,14.07
2023-05-25T19:20:45.124Z,13.98
2023-05-25T19:23:15.820Z,13.91
2023-05-25T19:25:47.193Z,13.81
2023-05-25T19:28:17.142Z,13.72
2023-05-25T19:30:46.783Z,13.62
2023-05-25T19:33:16.517Z,13.52
2023-05-25T19:35:53.843Z,13.40
2023-05-25T19:38:26.641Z,13.32
2023-05-25T19:40:58.780Z,13.21
2023-05-25T19:43:28.401Z,13.12
2023-05-25T19:45:58.822Z,13.01
2023-05-25T19:48:28.569Z,12.90
2023-05-25T19:51:01.861Z,12.79
2023-05-25T19:53:34.015Z,12.71
2023-05-25T19:56:04.137Z,12.64
2023-05-25T19:58:35.136Z,12.54
2023-05-25T20:01:05.101Z,12.50
2023-05-25T20:03:34.992Z,12.44
2023-05-25T20:06:10.662Z,12.35
2023-05-25T20:08:40.576Z,12.25
2023-05-25T20:11:10.252Z,12.19
2023-05-25T20:13:39.862Z,12.30
2023-05-25T20:16:10.670Z,12.27
2023-05-25T20:18:40.463Z,12.20
2023-05-25T20:21:12.829Z,12.15
2023-05-25T20:23:43.004Z,12.03
2023-05-25T20:26:12.637Z,11.98
2023-05-25T20:28:43.971Z,11.89
2023-05-25T20:31:13.810Z,11.86
2023-05-25T20:33:43.543Z,11.73
2023-05-25T20:36:15.919Z,11.66
2023-05-25T20:38:46.794Z,11.60
2023-05-25T20:41:16.908Z,11.52
2023-05-25T20:43:49.782Z,11.51
2023-05-25T20:46:19.873Z,11.45
2023-05-25T20:48:49.598Z,11.42
2023-05-25T20:51:22.060Z,11.29
2023-05-25T20:53:51.814Z,11.26
2023-05-25T20:56:21.746Z,11.18
2023-05-25T20:58:53.789Z,11.11
2023-05-25T21:01:23.584Z,11.03
2023-05-25T21:03:54.496Z,11.01
2023-05-25T21:09:02.094Z,10.91
2023-05-25T21:11:31.890Z,10.96
2023-05-25T21:14:02.278Z,10.90
2023-05-25T21:16:32.103Z,10.85
2023-05-25T21:19:01.841Z,10.77
2023-05-25T21:21:36.927Z,10.74
2023-05-25T21:24:06.970Z,10.64
2023-05-25T21:26:36.902Z,10.66
2023-05-25T21:29:07.824Z,10.69
2023-05-25T21:31:37.860Z,10.68
2023-05-25T21:34:07.579Z,10.68
2023-05-25T21:36:39.829Z,10.64
2023-05-25T21:39:09.823Z,10.64
2023-05-25T21:41:39.521Z,10.68
2023-05-25T21:44:10.298Z,10.66
2023-05-25T21:46:40.620Z,10.66
2023-05-25T21:49:11.248Z,10.64
2023-05-25T21:51:45.649Z,10.64
2023-05-25T21:54:15.277Z,10.63
2023-05-25T21:56:45.065Z,10.60
2023-05-25T21:59:14.764Z,10.61
2023-05-25T22:01:44.655Z,10.57
2023-05-25T22:04:15.455Z,10.56
2023-05-25T22:06:47.735Z,10.50
2023-05-25T22:09:17.510Z,10.51
2023-05-25T22:11:48.691Z,10.45
2023-05-25T22:14:18.799Z,10.41
2023-05-25T22:16:48.668Z,10.43
2023-05-25T22:19:18.768Z,10.41
2023-05-25T22:21:51.070Z,10.37
2023-05-25T22:24:23.006Z,10.36
2023-05-25T22:26:52.683Z,10.34
2023-05-25T22:29:22.633Z,10.36
2023-05-25T22:31:52.502Z,10.34
2023-05-25T22:34:23.054Z,10.39
2023-05-25T22:36:55.310Z,10.32
2023-05-25T22:39:24.981Z,10.25
2023-05-25T22:41:55.174Z,10.26
2023-05-25T22:44:24.804Z,10.24
2023-05-25T22:46:54.965Z,10.18
2023-05-25T22:49:28.652Z,10.13
2023-05-25T22:52:01.846Z,10.09
2023-05-25T22:54:31.712Z,10.08
2023-05-25T22:57:01.605Z,10.02
2023-05-25T22:59:31.258Z,9.98
2023-05-25T23:02:01.076Z,9.93
2023-05-25T23:04:30.856Z,9.91
2023-05-25T23:07:03.051Z,9.87
2023-05-25T23:09:32.673Z,9.83
2023-05-25T23:12:05.857Z,9.79
2023-05-25T23:14:36.806Z,9.74
2023-05-25T23:17:06.515Z,9.71
2023-05-25T23:19:36.113Z,9.67
2023-05-25T23:22:09.740Z,9.57
2023-05-25T23:24:40.573Z,9.53
2023-05-25T23:27:10.237Z,9.51
2023-05-25T23:29:39.914Z,9.43
2023-05-25T23:32:09.886Z,9.38
2023-05-25T23:34:39.530Z,9.38
2023-05-25T23:37:12.723Z,9.40
2023-05-25T23:39:44.750Z,9.34
2023-05-25T23:42:15.702Z,9.35
2023-05-25T23:44:45.791Z,9.30
2023-05-25T23:47:15.882Z,9.25
2023-05-25T23:49:47.614Z,9.20
2023-05-25T23:52:20.761Z,9.11
2023-05-25T23:54:50.366Z,8.99
2023-05-25T23:57:20.000Z,8.99
2023-05-25T23:59:52.746Z,8.98
